createdAt,value
2022-12-18T00:00:44.518Z,64.50
2022-12-18T00:03:36.475Z,70.00
2022-12-18T00:06:08.436Z,68.10
2022-12-18T00:08:40.111Z,66.20
2022-12-18T00:11:13.309Z,70.90
2022-12-18T00:13:45.605Z,70.00
2022-12-18T00:16:20.982Z,75.10
2022-12-18T00:18:54.492Z,77.70
2022-12-18T00:21:26.425Z,76.60
2022-12-18T00:23:58.614Z,71.30
2022-12-18T00:26:32.461Z,86.90
2022-12-18T00:29:06.580Z,75.70
2022-12-18T00:31:39.167Z,76.60
2022-12-18T00:34:13.792Z,75.90
2022-12-18T00:36:46.047Z,75.20
2022-12-18T00:39:17.667Z,76.90
2022-12-18T00:42:06.838Z,74.30
2022-12-18T00:44:38.484Z,71.10
2022-12-18T00:47:10.160Z,81.70
2022-12-18T00:49:41.895Z,71.40
2022-12-18T00:52:14.465Z,80.50
2022-12-18T00:54:46.273Z,75.50
2022-12-18T00:57:17.851Z,79.70
2022-12-18T00:59:49.511Z,72.10
2022-12-18T01:02:21.307Z,79.90
2022-12-18T01:04:53.085Z,70.30
2022-12-18T01:07:24.689Z,93.30
2022-12-18T01:09:56.332Z,74.50
2022-12-18T01:12:28.063Z,77.90
2022-12-18T01:14:59.942Z,72.00
2022-12-18T01:17:33.088Z,94.80
2022-12-18T01:20:12.200Z,80.90
2022-12-18T01:22:44.053Z,85.50
2022-12-18T01:25:15.773Z,82.40
2022-12-18T01:27:47.489Z,78.30
2022-12-18T01:30:26.166Z,79.30
2022-12-18T01:32:58.637Z,82.50
2022-12-18T01:35:30.274Z,82.40
2022-12-18T01:38:02.208Z,81.90
2022-12-18T01:40:33.892Z,80.50
2022-12-18T01:43:05.464Z,80.30
2022-12-18T01:45:37.146Z,75.20
2022-12-18T01:48:10.816Z,82.30
2022-12-18T01:50:44.628Z,92.10
2022-12-18T01:53:19.055Z,83.80
2022-12-18T01:55:53.893Z,82.00
2022-12-18T01:58:32.327Z,86.00
2022-12-18T02:01:04.348Z,85.10
2022-12-18T02:03:36.774Z,93.90
2022-12-18T02:06:18.088Z,89.30
2022-12-18T02:08:59.336Z,97.00
2022-12-18T02:14:18.908Z,87.70
2022-12-18T02:17:00.904Z,78.00
2022-12-18T02:19:46.457Z,86.50
2022-12-18T02:22:31.873Z,94.10
2022-12-18T02:25:15.345Z,85.50
2022-12-18T02:27:49.323Z,92.20
2022-12-18T02:30:26.102Z,83.60
2022-12-18T02:32:59.805Z,84.90
2022-12-18T02:35:34.872Z,78.10
2022-12-18T02:38:07.259Z,74.90
2022-12-18T02:40:40.645Z,83.10
2022-12-18T02:43:14.367Z,92.70
2022-12-18T02:45:52.729Z,93.00
2022-12-18T02:48:28.142Z,84.70
2022-12-18T02:51:05.744Z,83.30
2022-12-18T02:53:45.520Z,70.40
2022-12-18T02:56:24.669Z,78.30
2022-12-18T02:59:02.408Z,90.50
2022-12-18T03:01:40.799Z,90.10
2022-12-18T03:04:16.935Z,80.80
2022-12-18T03:06:51.410Z,82.20
2022-12-18T03:09:27.020Z,91.60
2022-12-18T03:12:20.198Z,84.70
2022-12-18T03:14:54.532Z,84.40
2022-12-18T03:17:28.886Z,78.90
2022-12-18T03:20:04.524Z,86.40
2022-12-18T03:22:45.059Z,81.00
2022-12-18T03:25:18.946Z,90.50
2022-12-18T03:27:56.320Z,87.30
2022-12-18T03:30:31.822Z,82.90
2022-12-18T03:33:09.663Z,83.00
2022-12-18T03:35:44.061Z,86.00
2022-12-18T03:38:16.373Z,88.50
2022-12-18T03:40:58.583Z,94.80
2022-12-18T03:43:41.740Z,89.00
2022-12-18T03:46:22.742Z,97.50
2022-12-18T03:49:00.209Z,91.50
2022-12-18T03:51:39.736Z,95.10
2022-12-18T03:54:13.671Z,92.40
2022-12-18T03:56:49.531Z,94.40
2022-12-18T03:59:24.402Z,102.00
2022-12-18T04:01:59.152Z,96.10
2022-12-18T04:04:33.154Z,90.70
2022-12-18T04:07:05.654Z,103.80
2022-12-18T04:09:38.805Z,105.30
2022-12-18T04:12:11.895Z,108.00
2022-12-18T04:14:43.574Z,94.40
2022-12-18T04:17:15.997Z,96.40
2022-12-18T04:19:47.963Z,98.60
2022-12-18T04:22:19.625Z,99.80
2022-12-18T04:24:52.190Z,105.00
2022-12-18T04:27:23.945Z,99.30
2022-12-18T04:29:55.515Z,108.90
2022-12-18T04:32:27.245Z,105.80
2022-12-18T04:34:58.899Z,103.70
2022-12-18T04:37:30.664Z,102.70
2022-12-18T04:40:02.347Z,102.20
2022-12-18T04:42:34.039Z,100.70
2022-12-18T04:45:06.346Z,99.40
2022-12-18T04:47:38.002Z,89.80
2022-12-18T04:50:14.348Z,91.80
2022-12-18T04:52:46.126Z,90.90
2022-12-18T04:55:17.894Z,88.00
2022-12-18T04:57:49.552Z,85.30
2022-12-18T05:00:21.685Z,89.90
2022-12-18T05:02:53.533Z,96.40
2022-12-18T05:05:25.742Z,87.90
2022-12-18T05:07:57.401Z,101.80
2022-12-18T05:10:32.245Z,95.30
2022-12-18T05:13:07.983Z,87.70
2022-12-18T05:15:39.846Z,87.00
2022-12-18T05:18:11.571Z,77.90
2022-12-18T05:20:43.208Z,87.30
2022-12-18T05:23:14.889Z,81.90
2022-12-18T05:25:52.496Z,76.80
2022-12-18T05:28:25.460Z,71.40
2022-12-18T05:30:58.583Z,72.90
2022-12-18T05:33:33.020Z,74.60
2022-12-18T05:36:06.507Z,72.30
2022-12-18T05:38:40.260Z,71.90
2022-12-18T05:41:12.525Z,66.70
2022-12-18T05:43:44.634Z,73.90
2022-12-18T05:46:18.595Z,68.50
2022-12-18T05:48:51.362Z,69.10
2022-12-18T05:51:24.279Z,71.10
2022-12-18T05:53:56.026Z,62.40
2022-12-18T05:56:27.630Z,73.90
2022-12-18T05:58:59.795Z,72.50
2022-12-18T06:01:31.701Z,70.30
2022-12-18T06:04:04.294Z,70.10
2022-12-18T06:06:37.798Z,64.80
2022-12-18T06:09:10.984Z,69.10
2022-12-18T06:11:42.772Z,69.50
2022-12-18T06:14:14.732Z,71.80
2022-12-18T06:16:46.319Z,69.10
2022-12-18T06:19:19.524Z,68.40
2022-12-18T06:21:51.799Z,65.60
2022-12-18T06:24:23.443Z,58.50
2022-12-18T06:26:55.104Z,62.60
2022-12-18T06:29:26.933Z,64.70
2022-12-18T06:31:58.791Z,59.70
2022-12-18T06:34:30.495Z,62.00
2022-12-18T06:37:02.204Z,57.60
2022-12-18T06:39:33.905Z,59.70
2022-12-18T06:42:06.700Z,61.50
2022-12-18T06:44:38.385Z,57.60
2022-12-18T06:47:10.116Z,51.90
2022-12-18T06:49:41.831Z,56.10
2022-12-18T06:52:13.624Z,57.50
2022-12-18T06:54:45.330Z,58.60
2022-12-18T06:57:16.955Z,52.40
2022-12-18T06:59:48.700Z,53.40
2022-12-18T07:02:20.387Z,57.50
2022-12-18T07:04:52.263Z,57.40
2022-12-18T07:07:23.880Z,49.50
2022-12-18T07:09:55.634Z,46.20
2022-12-18T07:12:28.453Z,40.20
2022-12-18T07:15:00.142Z,36.70
2022-12-18T07:17:31.753Z,42.10
2022-12-18T07:20:03.400Z,39.60
2022-12-18T07:22:35.070Z,38.30
2022-12-18T07:25:08.263Z,40.90
2022-12-18T07:27:39.896Z,42.70
2022-12-18T07:30:24.787Z,45.30
2022-12-18T07:32:56.463Z,42.30
2022-12-18T07:35:28.068Z,40.70
2022-12-18T07:37:59.802Z,45.40
2022-12-18T07:40:31.530Z,41.60
2022-12-18T07:43:03.153Z,43.00
2022-12-18T07:45:34.942Z,42.40
2022-12-18T07:48:06.996Z,38.90
2022-12-18T07:50:38.711Z,39.80
2022-12-18T07:53:10.347Z,38.20
2022-12-18T07:56:17.806Z,40.60
2022-12-18T07:58:34.323Z,43.60
2022-12-18T08:01:13.866Z,42.00
2022-12-18T08:03:45.592Z,44.20
2022-12-18T08:06:17.551Z,42.40
2022-12-18T08:08:49.208Z,47.60
2022-12-18T08:11:21.632Z,47.90
2022-12-18T08:13:53.903Z,46.50
2022-12-18T08:16:26.316Z,48.20
2022-12-18T08:18:58.408Z,52.00
2022-12-18T08:21:32.358Z,59.00
2022-12-18T08:24:04.887Z,56.90
2022-12-18T08:26:36.551Z,48.80
2022-12-18T08:29:09.388Z,49.60
2022-12-18T08:31:41.103Z,43.60
2022-12-18T08:34:12.846Z,46.40
2022-12-18T08:36:44.521Z,39.60
2022-12-18T08:39:16.304Z,39.30
2022-12-18T08:42:10.315Z,39.80
2022-12-18T08:44:42.643Z,39.90
2022-12-18T08:47:14.315Z,38.50
2022-12-18T08:49:45.958Z,39.80
2022-12-18T08:52:17.586Z,34.70
2022-12-18T08:54:49.398Z,38.30
2022-12-18T08:57:21.036Z,40.20
2022-12-18T08:59:52.716Z,44.40
2022-12-18T09:02:24.567Z,47.20
2022-12-18T09:04:57.752Z,46.00
2022-12-18T09:07:29.695Z,54.30
2022-12-18T09:10:01.278Z,52.20
2022-12-18T09:12:33.062Z,52.30
2022-12-18T09:15:05.201Z,50.80
2022-12-18T09:17:36.784Z,52.20
2022-12-18T09:20:15.879Z,53.70
2022-12-18T09:22:48.201Z,51.10
2022-12-18T09:25:20.051Z,53.90
2022-12-18T09:27:51.936Z,54.90
2022-12-18T09:30:23.702Z,51.50
2022-12-18T09:32:55.400Z,55.80
2022-12-18T09:35:28.737Z,53.20
2022-12-18T09:38:00.510Z,59.90
2022-12-18T09:40:37.313Z,59.80
2022-12-18T09:43:15.823Z,57.90
2022-12-18T09:45:57.016Z,59.80
2022-12-18T09:48:32.987Z,58.00
2022-12-18T09:51:11.505Z,61.90
2022-12-18T09:53:47.758Z,64.30
2022-12-18T09:56:24.075Z,62.80
2022-12-18T09:59:00.597Z,60.00
2022-12-18T10:01:43.128Z,53.40
2022-12-18T10:04:15.774Z,60.80
2022-12-18T10:06:55.232Z,59.50
2022-12-18T10:09:34.770Z,58.80
2022-12-18T10:12:14.923Z,59.10
2022-12-18T10:14:52.571Z,63.10
2022-12-18T10:17:34.237Z,56.60
2022-12-18T10:20:15.439Z,56.50
2022-12-18T10:25:28.430Z,52.20
2022-12-18T10:28:09.289Z,52.70
2022-12-18T10:30:42.543Z,49.20
2022-12-18T10:33:16.649Z,49.50
2022-12-18T10:35:49.602Z,51.40
2022-12-18T10:38:32.772Z,59.80
2022-12-18T10:41:06.630Z,55.40
2022-12-18T10:43:40.362Z,57.60
2022-12-18T10:46:22.089Z,56.20
2022-12-18T10:48:57.191Z,59.20
2022-12-18T10:51:31.925Z,55.00
2022-12-18T10:54:06.764Z,57.70
2022-12-18T10:56:40.050Z,56.30
2022-12-18T10:59:15.769Z,52.10
2022-12-18T11:01:53.592Z,49.50
2022-12-18T11:04:28.276Z,50.50
2022-12-18T11:07:02.768Z,56.50
2022-12-18T11:09:36.360Z,47.60
2022-12-18T11:12:19.985Z,50.60
2022-12-18T11:14:53.965Z,49.10
2022-12-18T11:17:31.425Z,53.10
2022-12-18T11:20:05.969Z,48.80
2022-12-18T11:22:39.576Z,50.30
2022-12-18T11:25:33.039Z,49.60
2022-12-18T11:28:07.564Z,45.00
2022-12-18T11:30:39.998Z,50.80
2022-12-18T11:33:17.645Z,52.30
2022-12-18T11:35:53.325Z,52.90
2022-12-18T11:38:28.291Z,47.00
2022-12-18T11:41:06.254Z,46.70
2022-12-18T11:43:43.373Z,53.10
2022-12-18T11:46:20.240Z,48.80
2022-12-18T11:48:59.059Z,45.60
2022-12-18T11:51:35.580Z,54.90
2022-12-18T11:54:16.838Z,51.30
2022-12-18T11:59:33.481Z,51.50
2022-12-18T12:02:19.879Z,47.90
2022-12-18T12:05:14.735Z,58.90
2022-12-18T12:07:54.592Z,59.20
2022-12-18T12:10:41.346Z,53.50
2022-12-18T12:13:25.732Z,53.60
2022-12-18T12:16:12.381Z,51.10
2022-12-18T12:18:56.644Z,50.10
2022-12-18T12:21:36.952Z,50.20
2022-12-18T12:24:24.819Z,56.60
2022-12-18T12:27:05.530Z,60.10
2022-12-18T12:29:48.899Z,56.30
2022-12-18T12:32:32.800Z,58.00
2022-12-18T12:35:17.804Z,57.30
2022-12-18T12:37:56.651Z,60.70
2022-12-18T12:43:34.283Z,65.50
2022-12-18T12:46:10.804Z,63.20
2022-12-18T12:48:48.697Z,62.00
2022-12-18T12:51:24.849Z,61.60
2022-12-18T12:53:59.416Z,60.00
2022-12-18T12:56:39.195Z,51.30
2022-12-18T12:59:18.452Z,47.50
2022-12-18T13:02:01.175Z,45.10
2022-12-18T13:04:41.009Z,45.60
2022-12-18T13:07:18.237Z,47.10
2022-12-18T13:13:23.699Z,53.70
2022-12-18T13:16:09.339Z,49.70
2022-12-18T13:18:50.112Z,52.90
2022-12-18T13:21:28.764Z,53.70
2022-12-18T13:24:16.656Z,55.70
2022-12-18T13:26:48.442Z,54.90
2022-12-18T13:29:46.225Z,54.90
2022-12-18T13:32:26.736Z,54.50
2022-12-18T13:35:36.056Z,55.80
2022-12-18T13:38:24.949Z,59.30
2022-12-18T13:40:59.744Z,60.00
2022-12-18T13:43:46.425Z,66.20
2022-12-18T13:46:28.934Z,60.60
2022-12-18T13:49:04.484Z,64.00
2022-12-18T13:51:37.516Z,68.50
2022-12-18T13:54:21.205Z,62.70
2022-12-18T13:56:54.364Z,79.80
2022-12-18T13:59:27.616Z,65.60
2022-12-18T14:02:04.204Z,64.70
2022-12-18T14:04:37.611Z,70.80
2022-12-18T14:07:14.855Z,65.40
2022-12-18T14:09:52.269Z,62.30
2022-12-18T14:12:46.941Z,60.60
2022-12-18T14:15:29.503Z,68.30
2022-12-18T14:18:03.928Z,73.80
2022-12-18T14:20:36.623Z,68.40
2022-12-18T14:23:26.766Z,71.60
2022-12-18T14:26:05.154Z,67.50
2022-12-18T14:28:47.058Z,59.80
2022-12-18T14:31:23.646Z,59.70
2022-12-18T14:33:56.284Z,60.50
2022-12-18T14:36:30.087Z,69.00
2022-12-18T14:39:02.273Z,74.80
2022-12-18T14:41:34.268Z,72.50
2022-12-18T14:44:13.626Z,64.90
2022-12-18T14:46:46.926Z,60.90
2022-12-18T14:49:28.646Z,60.50
2022-12-18T14:52:02.833Z,57.70
2022-12-18T14:54:37.148Z,62.40
2022-12-18T14:57:27.525Z,69.20
2022-12-18T15:00:36.690Z,75.80
2022-12-18T15:03:11.766Z,66.60
2022-12-18T15:05:43.599Z,65.30
2022-12-18T15:14:32.999Z,65.50
2022-12-18T15:17:08.071Z,69.40
2022-12-18T15:19:43.604Z,75.10
2022-12-18T15:22:26.545Z,91.10
2022-12-18T15:25:00.088Z,77.50
2022-12-18T15:27:34.471Z,73.50
2022-12-18T15:30:28.464Z,92.70
2022-12-18T15:33:25.905Z,98.60
2022-12-18T15:36:02.138Z,111.40
2022-12-18T15:38:34.310Z,123.50
2022-12-18T15:41:10.239Z,118.60
2022-12-18T15:43:46.424Z,101.10
2022-12-18T15:46:20.982Z,88.70
2022-12-18T15:49:01.221Z,95.90
2022-12-18T15:51:37.483Z,84.00
2022-12-18T15:54:14.028Z,81.70
2022-12-18T15:57:03.343Z,89.40
2022-12-18T15:59:35.045Z,92.80
2022-12-18T16:02:18.400Z,91.20
2022-12-18T16:04:50.381Z,91.40
2022-12-18T16:07:25.697Z,92.90
2022-12-18T16:09:59.127Z,87.40
2022-12-18T16:12:34.142Z,91.90
2022-12-18T16:15:09.040Z,93.70
2022-12-18T16:17:40.910Z,95.50
2022-12-18T16:20:17.107Z,94.50
2022-12-18T16:22:49.635Z,97.80
2022-12-18T16:25:25.316Z,97.70
2022-12-18T16:27:58.260Z,111.00
2022-12-18T16:30:38.191Z,108.60
2022-12-18T16:33:10.365Z,99.70
2022-12-18T16:35:42.202Z,96.10
2022-12-18T16:38:14.608Z,101.60
2022-12-18T16:41:00.106Z,97.60
2022-12-18T16:43:31.811Z,94.20
2022-12-18T16:46:03.859Z,95.90
2022-12-18T16:48:35.531Z,100.30
2022-12-18T16:51:07.809Z,105.60
2022-12-18T16:53:39.799Z,101.40
2022-12-18T16:56:11.807Z,100.50
2022-12-18T16:58:43.464Z,113.50
2022-12-18T17:01:16.121Z,98.20
2022-12-18T17:03:52.558Z,104.20
2022-12-18T17:06:24.917Z,102.50
2022-12-18T17:09:03.357Z,107.00
2022-12-18T17:11:36.957Z,109.30
2022-12-18T17:14:15.484Z,107.10
2022-12-18T17:16:49.177Z,99.60
2022-12-18T17:19:26.828Z,103.20
2022-12-18T17:21:58.555Z,111.70
2022-12-18T17:24:34.544Z,105.80
2022-12-18T17:27:08.633Z,106.20
2022-12-18T17:29:46.780Z,109.70
2022-12-18T17:32:19.550Z,106.10
2022-12-18T17:34:51.144Z,116.70
2022-12-18T17:37:22.818Z,112.30
2022-12-18T17:39:55.611Z,114.00
2022-12-18T17:42:27.436Z,119.80
2022-12-18T17:44:59.204Z,106.80
2022-12-18T17:47:31.102Z,109.70
2022-12-18T17:50:02.799Z,102.80
2022-12-18T17:52:34.358Z,98.60
2022-12-18T17:55:06.726Z,93.10
2022-12-18T17:57:38.694Z,92.90
2022-12-18T18:00:39.897Z,102.20
2022-12-18T18:03:11.656Z,101.70
2022-12-18T18:05:43.948Z,103.50
2022-12-18T18:08:15.626Z,98.90
2022-12-18T18:10:49.121Z,98.20
2022-12-18T18:16:55.573Z,92.00
2022-12-18T18:19:29.146Z,98.40
2022-12-18T18:22:18.777Z,106.60
2022-12-18T18:24:50.514Z,95.80
2022-12-18T18:27:22.186Z,93.30
2022-12-18T18:29:53.819Z,93.40
2022-12-18T18:32:25.441Z,84.10
2022-12-18T18:34:57.150Z,84.30
2022-12-18T18:37:28.872Z,86.20
2022-12-18T18:40:00.881Z,86.70
2022-12-18T18:42:32.872Z,93.90
2022-12-18T18:45:04.574Z,94.20
2022-12-18T18:47:36.293Z,90.50
2022-12-18T18:50:14.476Z,97.00
2022-12-18T18:53:03.712Z,110.00
2022-12-18T18:55:37.668Z,106.00
2022-12-18T18:58:09.397Z,104.80
2022-12-18T19:00:41.516Z,109.50
2022-12-18T19:03:13.393Z,113.00
2022-12-18T19:05:47.604Z,114.20
2022-12-18T19:08:19.411Z,119.30
2022-12-18T19:10:57.689Z,108.50
2022-12-18T19:13:32.977Z,104.70
2022-12-18T19:16:09.090Z,103.70
2022-12-18T19:18:41.214Z,100.90
2022-12-18T19:21:13.952Z,97.60
2022-12-18T19:23:47.380Z,87.20
2022-12-18T19:26:28.557Z,88.90
2022-12-18T19:29:05.179Z,83.30
2022-12-18T19:31:37.844Z,95.20
2022-12-18T19:34:10.210Z,92.50
2022-12-18T19:36:42.717Z,93.40
2022-12-18T19:39:17.347Z,93.00
2022-12-18T19:41:49.540Z,87.40
2022-12-18T19:44:21.261Z,95.00
2022-12-18T19:46:53.806Z,97.00
2022-12-18T19:49:25.458Z,101.60
2022-12-18T19:51:57.100Z,91.70
2022-12-18T19:54:28.882Z,101.90
2022-12-18T19:57:00.454Z,101.30
2022-12-18T19:59:32.110Z,104.30
2022-12-18T20:02:03.912Z,99.20
2022-12-18T20:04:35.704Z,99.00
2022-12-18T20:07:07.336Z,113.50
2022-12-18T20:09:39.204Z,99.30
2022-12-18T20:12:11.532Z,103.60
2022-12-18T20:14:43.308Z,100.30
2022-12-18T20:17:15.559Z,104.60
2022-12-18T20:19:47.240Z,101.30
2022-12-18T20:22:19.254Z,104.70
2022-12-18T20:24:50.899Z,97.30
2022-12-18T20:27:22.816Z,104.70
2022-12-18T20:29:55.835Z,110.70
2022-12-18T20:32:35.378Z,103.60
2022-12-18T20:35:09.633Z,106.20
2022-12-18T20:37:46.089Z,101.60
2022-12-18T20:40:28.421Z,106.00
2022-12-18T20:43:00.172Z,105.40
2022-12-18T20:45:32.042Z,108.90
2022-12-18T20:48:03.682Z,117.40
2022-12-18T20:50:35.601Z,114.50
2022-12-18T20:53:07.332Z,115.20
2022-12-18T20:55:44.769Z,119.00
2022-12-18T20:58:16.452Z,114.50
2022-12-18T21:00:48.303Z,125.90
2022-12-18T21:03:20.008Z,130.00
2022-12-18T21:05:51.730Z,124.70
2022-12-18T21:08:23.391Z,131.20
2022-12-18T21:10:55.496Z,135.80
2022-12-18T21:13:27.291Z,144.70
2022-12-18T21:16:01.220Z,131.00
2022-12-18T21:18:32.842Z,143.00
2022-12-18T21:21:04.765Z,133.20
2022-12-18T21:23:36.558Z,131.10
2022-12-18T21:26:20.714Z,134.50
2022-12-18T21:28:56.105Z,131.70
2022-12-18T21:31:30.165Z,137.40
2022-12-18T21:34:02.651Z,130.30
2022-12-18T21:36:35.039Z,135.20
2022-12-18T21:39:07.316Z,138.00
2022-12-18T21:41:56.656Z,130.20
2022-12-18T21:44:28.898Z,134.70
2022-12-18T21:47:10.797Z,135.90
2022-12-18T21:49:53.338Z,115.30
2022-12-18T21:52:31.239Z,121.70
2022-12-18T21:55:09.470Z,143.00
2022-12-18T21:57:41.921Z,144.00
2022-12-18T22:00:19.650Z,156.30
2022-12-18T22:03:17.546Z,152.20
2022-12-18T22:05:43.579Z,146.50
2022-12-18T22:08:15.378Z,149.20
2022-12-18T22:10:47.048Z,172.70
2022-12-18T22:13:18.875Z,150.20
2022-12-18T22:15:50.554Z,145.40
2022-12-18T22:18:22.912Z,151.40
2022-12-18T22:21:04.792Z,146.80
2022-12-18T22:23:36.588Z,151.00
2022-12-18T22:26:08.365Z,146.70
2022-12-18T22:29:08.891Z,147.50
2022-12-18T22:31:40.739Z,152.20
2022-12-18T22:34:12.746Z,154.00
2022-12-18T22:36:47.807Z,164.00
2022-12-18T22:39:21.829Z,142.50
2022-12-18T22:41:54.326Z,156.20
2022-12-18T22:44:26.267Z,153.40
2022-12-18T22:47:06.364Z,149.80
2022-12-18T22:49:39.696Z,140.20
2022-12-18T22:52:12.584Z,142.20
2022-12-18T22:54:46.449Z,156.70
2022-12-18T22:57:18.131Z,136.50
2022-12-18T22:59:50.221Z,145.30
2022-12-18T23:02:22.166Z,152.50
2022-12-18T23:04:54.121Z,145.60
2022-12-18T23:07:25.711Z,153.60
2022-12-18T23:10:00.791Z,137.80
2022-12-18T23:12:32.876Z,143.90
2022-12-18T23:15:10.025Z,139.20
2022-12-18T23:17:41.646Z,146.50
2022-12-18T23:20:26.206Z,134.10
2022-12-18T23:22:57.879Z,134.80
2022-12-18T23:25:29.504Z,147.70
2022-12-18T23:28:01.182Z,141.30
2022-12-18T23:30:39.651Z,140.80
2022-12-18T23:33:11.239Z,149.00
2022-12-18T23:35:43.086Z,139.30
2022-12-18T23:38:14.695Z,133.90
2022-12-18T23:40:46.316Z,136.90
2022-12-18T23:43:19.968Z,135.60
2022-12-18T23:45:55.643Z,129.50
2022-12-18T23:48:27.936Z,136.90
2022-12-18T23:50:59.705Z,132.60
2022-12-18T23:53:31.306Z,125.40
2022-12-18T23:56:04.086Z,133.40
2022-12-18T23:58:36.667Z,134.40
